Time;durP1;ratioP1;P1;durP2;ratioP2;P2;SDS_P1;SDS_P2;PMS_P1;PMS_P2;Temp;Humidity;BMP_temperature;BMP_pressure;BME280_temperature;BME280_humidity;BME280_pressure;Samples;Min_cycle;Max_cycle;Signal;HPM_P1;HPM_P2
2021/01/15 00:02:00;;;;;;;;;;;2.20;92.70;;;;;;5051733;28;19951;-87
2021/01/15 00:04:25;;;;;;;;;;;2.20;92.70;;;;;;5034791;28;20015;-87
2021/01/15 00:06:55;;;;;;;;;;;2.20;92.70;;;;;;5030318;28;20008;-87
2021/01/15 00:09:20;;;;;;;;;;;2.20;92.70;;;;;;5031257;28;19967;-86
2021/01/15 00:11:46;;;;;;;;;;;2.20;92.70;;;;;;5017554;28;19984;-86
2021/01/15 00:14:11;;;;;;;;;;;2.20;92.70;;;;;;5034897;28;19919;-88
2021/01/15 00:16:37;;;;;;;;;;;2.20;92.60;;;;;;5034902;28;20008;-86
2021/01/15 00:19:02;;;;;;;;;;;2.20;92.60;;;;;;5014811;28;20004;-86
2021/01/15 00:21:29;;;;;;;;;;;2.20;92.70;;;;;;5026104;28;20688;-87
2021/01/15 00:24:02;;;;;;;;;;;2.20;92.70;;;;;;5052581;28;20358;-86
2021/01/15 00:26:28;;;;;;;;;;;2.20;92.70;;;;;;5034480;28;20254;-86
2021/01/15 00:28:55;;;;;;;;;;;2.20;92.70;;;;;;5017962;28;19913;-86
2021/01/15 00:31:28;;;;;;;;;;;2.30;92.70;;;;;;5034868;28;20371;-87
2021/01/15 00:33:54;;;;;;;;;;;2.30;92.70;;;;;;5052458;28;19909;-87
2021/01/15 00:36:19;;;;;;;;;;;2.20;92.70;;;;;;5034355;28;19912;-86
2021/01/15 00:38:45;;;;;;;;;;;2.20;92.60;;;;;;5051417;28;19913;-86
2021/01/15 00:41:11;;;;;;;;;;;2.20;92.60;;;;;;5047616;28;20367;-86
2021/01/15 00:43:36;;;;;;;;;;;2.20;92.60;;;;;;5004442;28;20003;-86
2021/01/15 00:46:07;;;;;;;;;;;2.20;92.90;;;;;;5029025;28;19920;-86
2021/01/15 00:48:32;;;;;;;;;;;2.20;92.70;;;;;;5052354;28;19916;-87
2021/01/15 00:51:05;;;;;;;;;;;2.20;92.70;;;;;;5038340;28;19913;-88
2021/01/15 00:53:31;;;;;;;;;;;2.10;92.70;;;;;;5042940;28;19916;-87
2021/01/15 00:55:56;;;;;;;;;;;2.20;92.70;;;;;;5012497;28;19959;-87
2021/01/15 00:58:22;;;;;;;;;;;2.20;93.00;;;;;;5018166;28;19952;-87
2021/01/15 01:00:47;;;;;;;;;;;2.20;92.70;;;;;;5048163;28;19920;-88
2021/01/15 01:03:13;;;;;;;;;;;2.20;92.70;;;;;;5037892;28;19925;-87
2021/01/15 01:05:39;;;;;;;;;;;2.20;92.70;;;;;;5022138;28;19921;-87
2021/01/15 01:08:04;;;;;;;;;;;2.30;92.70;;;;;;5021946;28;19912;-86
2021/01/15 01:10:31;;;;;;;;;;;2.30;92.80;;;;;;5055925;28;19913;-87
2021/01/15 01:12:56;;;;;;;;;;;2.20;92.70;;;;;;5022118;28;19919;-86
2021/01/15 01:15:22;;;;;;;;;;;2.30;92.70;;;;;;5037819;28;19913;-86
2021/01/15 01:17:48;;;;;;;;;;;2.30;92.70;;;;;;5038061;28;19920;-87
2021/01/15 01:20:13;;;;;;;;;;;2.30;92.70;;;;;;5054600;28;19916;-87
2021/01/15 01:22:39;;;;;;;;;;;2.30;92.70;;;;;;5031470;28;19935;-87
2021/01/15 01:25:05;;;;;;;;;;;2.30;92.70;;;;;;5018982;28;20385;-87
2021/01/15 01:27:31;;;;;;;;;;;2.30;92.70;;;;;;5023329;28;20012;-87
2021/01/15 01:29:56;;;;;;;;;;;2.30;92.60;;;;;;5028150;28;20007;-86
2021/01/15 01:32:22;;;;;;;;;;;2.30;92.70;;;;;;5035709;28;20405;-87
2021/01/15 01:34:47;;;;;;;;;;;2.30;93.00;;;;;;5034266;28;19909;-87
2021/01/15 01:37:13;;;;;;;;;;;2.30;92.70;;;;;;5021044;28;19913;-86
2021/01/15 01:39:38;;;;;;;;;;;2.30;92.60;;;;;;5037133;28;19913;-87
2021/01/15 01:42:04;;;;;;;;;;;2.40;92.60;;;;;;5037144;28;20370;-87
2021/01/15 01:44:29;;;;;;;;;;;2.40;92.50;;;;;;5036383;28;19913;-87
2021/01/15 01:46:55;;;;;;;;;;;2.40;92.60;;;;;;5016572;28;20554;-87
2021/01/15 01:49:21;;;;;;;;;;;2.40;92.60;;;;;;5017764;28;19975;-87
2021/01/15 01:51:48;;;;;;;;;;;2.40;92.60;;;;;;5009726;28;20040;-88
2021/01/15 01:54:14;;;;;;;;;;;2.40;92.70;;;;;;5030423;28;19971;-87
2021/01/15 01:56:40;;;;;;;;;;;2.40;92.70;;;;;;5019296;28;20409;-86
2021/01/15 01:59:06;;;;;;;;;;;2.50;92.70;;;;;;5054317;28;19909;-87
2021/01/15 02:01:32;;;;;;;;;;;2.40;92.70;;;;;;5019316;28;19913;-87
2021/01/15 02:04:07;;;;;;;;;;;2.40;92.70;;;;;;5035982;28;19931;-88
2021/01/15 02:06:33;;;;;;;;;;;2.50;92.70;;;;;;5029950;28;19979;-86
2021/01/15 02:08:58;;;;;;;;;;;2.50;92.70;;;;;;5028111;28;19913;-88
2021/01/15 02:11:24;;;;;;;;;;;2.40;92.70;;;;;;5053063;28;19958;-86
2021/01/15 02:14:08;;;;;;;;;;;2.50;92.70;;;;;;5036281;28;19999;-87
2021/01/15 02:16:34;;;;;;;;;;;2.50;92.70;;;;;;5035362;28;20460;-87
2021/01/15 02:19:15;;;;;;;;;;;2.50;92.70;;;;;;5019160;28;20302;-87
2021/01/15 02:21:57;;;;;;;;;;;2.50;92.70;;;;;;5035212;28;19916;-87
2021/01/15 02:24:35;;;;;;;;;;;2.50;92.70;;;;;;5035634;28;19916;-86
2021/01/15 02:27:19;;;;;;;;;;;2.50;92.70;;;;;;5032664;28;19967;-86
2021/01/15 02:30:04;;;;;;;;;;;2.50;92.70;;;;;;5029941;28;20390;-87
2021/01/15 02:32:40;;;;;;;;;;;2.50;92.70;;;;;;5033278;28;19960;-86
2021/01/15 02:35:08;;;;;;;;;;;2.50;92.70;;;;;;5034566;28;19972;-86
2021/01/15 02:37:37;;;;;;;;;;;2.50;92.70;;;;;;5035885;28;19954;-86
2021/01/15 02:40:10;;;;;;;;;;;2.50;92.70;;;;;;5035229;28;19909;-87
2021/01/15 02:42:36;;;;;;;;;;;2.50;92.70;;;;;;5035056;28;20381;-87
2021/01/15 02:45:04;;;;;;;;;;;2.50;92.70;;;;;;5022928;28;19909;-86
2021/01/15 02:47:39;;;;;;;;;;;2.50;92.70;;;;;;5022304;28;19916;-86
2021/01/15 02:50:08;;;;;;;;;;;2.50;92.80;;;;;;5042912;28;19909;-86
2021/01/15 02:52:35;;;;;;;;;;;2.50;92.70;;;;;;5030157;28;19916;-87
2021/01/15 02:55:00;;;;;;;;;;;2.50;93.00;;;;;;5034094;28;19913;-86
2021/01/15 02:57:26;;;;;;;;;;;2.50;92.70;;;;;;5032618;28;19935;-86
2021/01/15 02:59:51;;;;;;;;;;;2.50;92.80;;;;;;5019728;28;20393;-86
2021/01/15 03:02:23;;;;;;;;;;;2.50;92.90;;;;;;5031612;28;20413;-86
2021/01/15 03:05:03;;;;;;;;;;;2.50;92.70;;;;;;5028005;28;19909;-86
2021/01/15 03:07:30;;;;;;;;;;;2.50;92.70;;;;;;5014337;28;20327;-87
2021/01/15 03:09:58;;;;;;;;;;;2.50;92.70;;;;;;5029400;28;20000;-88
2021/01/15 03:12:25;;;;;;;;;;;2.50;92.70;;;;;;5015444;28;19909;-86
2021/01/15 03:14:52;;;;;;;;;;;2.50;92.70;;;;;;5015532;28;20397;-86
2021/01/15 03:17:22;;;;;;;;;;;2.50;92.70;;;;;;5015852;28;20375;-87
2021/01/15 03:19:48;;;;;;;;;;;2.50;92.80;;;;;;5030357;28;19920;-86
2021/01/15 03:22:14;;;;;;;;;;;2.50;92.70;;;;;;5015774;28;20256;-86
2021/01/15 03:24:46;;;;;;;;;;;2.50;92.80;;;;;;5012649;28;19918;-87
2021/01/15 03:27:12;;;;;;;;;;;2.50;92.70;;;;;;5004207;28;19924;-86
2021/01/15 03:29:37;;;;;;;;;;;2.60;92.80;;;;;;5014147;28;19913;-87
2021/01/15 03:32:03;;;;;;;;;;;2.50;92.80;;;;;;5015416;28;19913;-86
2021/01/15 03:34:28;;;;;;;;;;;2.50;92.70;;;;;;5014469;28;20300;-89
2021/01/15 03:36:54;;;;;;;;;;;2.60;92.80;;;;;;5014420;28;19918;-87
2021/01/15 03:39:19;;;;;;;;;;;2.60;92.80;;;;;;5031774;28;19948;-87
2021/01/15 03:41:45;;;;;;;;;;;2.60;92.70;;;;;;5032160;28;20554;-87
2021/01/15 03:44:10;;;;;;;;;;;2.60;92.70;;;;;;5031199;28;19920;-87
2021/01/15 03:46:36;;;;;;;;;;;2.60;92.80;;;;;;5030593;28;20306;-87
2021/01/15 03:49:02;;;;;;;;;;;2.60;93.10;;;;;;5032316;28;19914;-86
2021/01/15 03:51:27;;;;;;;;;;;2.60;92.80;;;;;;5031249;28;20006;-87
2021/01/15 03:53:53;;;;;;;;;;;2.60;92.80;;;;;;5014332;28;20000;-86
2021/01/15 03:56:18;;;;;;;;;;;2.60;92.80;;;;;;5014779;28;19924;-86
2021/01/15 03:58:44;;;;;;;;;;;2.60;92.80;;;;;;5014195;28;19924;-86
2021/01/15 04:01:10;;;;;;;;;;;2.60;92.90;;;;;;5014614;28;20014;-87
2021/01/15 04:03:35;;;;;;;;;;;2.60;92.90;;;;;;5018491;28;19979;-88
2021/01/15 04:06:01;;;;;;;;;;;2.60;92.90;;;;;;5013866;28;19922;-86
2021/01/15 04:08:26;;;;;;;;;;;2.60;92.90;;;;;;5010536;28;19909;-87
2021/01/15 04:10:52;;;;;;;;;;;2.60;92.90;;;;;;5012038;28;19912;-86
2021/01/15 04:13:17;;;;;;;;;;;2.60;93.00;;;;;;5031920;28;19920;-86
2021/01/15 04:15:43;;;;;;;;;;;2.60;93.00;;;;;;5031962;28;20433;-86
2021/01/15 04:18:08;;;;;;;;;;;2.50;92.90;;;;;;4998308;28;19960;-86
2021/01/15 04:20:34;;;;;;;;;;;2.60;93.00;;;;;;5021455;28;20271;-88
2021/01/15 04:22:59;;;;;;;;;;;2.70;93.00;;;;;;5010925;28;20444;-87
2021/01/15 04:25:25;;;;;;;;;;;2.60;93.00;;;;;;5023328;28;19917;-85
2021/01/15 04:27:50;;;;;;;;;;;2.60;93.00;;;;;;5014533;28;20488;-86
2021/01/15 04:30:16;;;;;;;;;;;2.60;93.00;;;;;;5011322;28;19956;-86
2021/01/15 04:32:43;;;;;;;;;;;2.60;93.00;;;;;;4989916;28;19949;-87
2021/01/15 04:35:08;;;;;;;;;;;2.60;93.00;;;;;;5014096;28;19940;-87
2021/01/15 04:37:34;;;;;;;;;;;2.60;93.00;;;;;;5014058;28;19924;-88
2021/01/15 04:40:00;;;;;;;;;;;2.60;93.10;;;;;;5013664;28;19909;-86
2021/01/15 04:42:26;;;;;;;;;;;2.70;93.10;;;;;;5010310;28;19922;-87
2021/01/15 04:44:53;;;;;;;;;;;2.60;93.10;;;;;;4996871;28;20366;-87
2021/01/15 04:47:18;;;;;;;;;;;2.60;93.10;;;;;;5022760;28;20021;-87
2021/01/15 04:49:45;;;;;;;;;;;2.60;93.20;;;;;;4989845;28;20024;-86
2021/01/15 04:52:15;;;;;;;;;;;2.60;93.20;;;;;;5013998;28;19948;-87
2021/01/15 04:54:41;;;;;;;;;;;2.70;93.20;;;;;;5013449;28;19910;-86
2021/01/15 04:57:08;;;;;;;;;;;2.70;93.20;;;;;;5008003;28;20360;-87
2021/01/15 04:59:37;;;;;;;;;;;2.70;93.10;;;;;;5005802;28;19956;-87
2021/01/15 05:02:06;;;;;;;;;;;2.70;93.20;;;;;;5013083;28;19913;-87
2021/01/15 05:04:33;;;;;;;;;;;2.70;93.10;;;;;;5014089;28;20270;-87
2021/01/15 05:07:01;;;;;;;;;;;2.70;93.10;;;;;;5013520;28;19925;-86
2021/01/15 05:09:26;;;;;;;;;;;2.60;93.10;;;;;;5032070;28;19924;-86
2021/01/15 05:11:52;;;;;;;;;;;2.70;93.10;;;;;;4998454;28;19917;-87
2021/01/15 05:14:19;;;;;;;;;;;2.60;93.10;;;;;;4998242;28;19914;-86
2021/01/15 05:16:46;;;;;;;;;;;2.70;93.20;;;;;;5013996;28;19909;-86
2021/01/15 05:19:12;;;;;;;;;;;2.60;93.20;;;;;;5013943;28;19915;-87
2021/01/15 05:21:38;;;;;;;;;;;2.60;93.20;;;;;;4998103;28;19917;-89
2021/01/15 05:24:06;;;;;;;;;;;2.60;93.10;;;;;;5032085;28;19913;-87
2021/01/15 05:26:35;;;;;;;;;;;2.60;93.20;;;;;;5000297;28;19923;-86
2021/01/15 05:29:01;;;;;;;;;;;2.60;93.20;;;;;;5014499;28;19909;-87
2021/01/15 05:31:27;;;;;;;;;;;2.70;93.20;;;;;;5009352;28;19928;-87
2021/01/15 05:34:06;;;;;;;;;;;2.60;93.20;;;;;;5004978;28;20004;-87
2021/01/15 05:36:34;;;;;;;;;;;2.60;93.20;;;;;;5017520;28;20008;-87
2021/01/15 05:39:09;;;;;;;;;;;2.70;93.20;;;;;;5024103;28;19956;-88
2021/01/15 05:41:34;;;;;;;;;;;2.60;93.10;;;;;;5011627;28;19909;-86
2021/01/15 05:44:01;;;;;;;;;;;2.60;93.10;;;;;;5026838;28;19916;-87
2021/01/15 05:46:26;;;;;;;;;;;2.70;93.20;;;;;;5008033;28;19929;-87
2021/01/15 05:48:57;;;;;;;;;;;2.60;93.20;;;;;;5017659;28;19966;-86
2021/01/15 05:51:23;;;;;;;;;;;2.60;93.20;;;;;;5034150;28;19956;-86
2021/01/15 05:53:49;;;;;;;;;;;2.60;93.20;;;;;;5021128;28;20042;-87
2021/01/15 05:56:15;;;;;;;;;;;2.60;93.20;;;;;;5000760;28;20011;-87
2021/01/15 05:59:00;;;;;;;;;;;2.60;93.20;;;;;;5013376;28;20348;-88
2021/01/15 06:01:38;;;;;;;;;;;2.60;93.30;;;;;;5016859;28;19916;-87
2021/01/15 06:04:04;;;;;;;;;;;2.60;93.20;;;;;;5021723;28;19927;-87
2021/01/15 06:06:31;;;;;;;;;;;2.70;93.30;;;;;;5025608;28;19949;-86
2021/01/15 06:08:58;;;;;;;;;;;2.60;93.30;;;;;;5030714;28;19913;-86
2021/01/15 06:11:24;;;;;;;;;;;2.60;93.30;;;;;;5027789;28;19932;-86
2021/01/15 06:13:49;;;;;;;;;;;2.70;93.40;;;;;;5035936;28;19919;-88
2021/01/15 06:16:19;;;;;;;;;;;2.70;93.40;;;;;;5021233;28;20386;-86
2021/01/15 06:19:00;;;;;;;;;;;2.60;93.40;;;;;;5035783;28;20653;-87
2021/01/15 06:21:30;;;;;;;;;;;2.70;93.40;;;;;;5031767;28;19912;-87
2021/01/15 06:23:58;;;;;;;;;;;2.70;93.40;;;;;;5037330;28;19982;-86
2021/01/15 06:26:31;;;;;;;;;;;2.70;93.30;;;;;;5041881;28;19920;-87
2021/01/15 06:29:03;;;;;;;;;;;2.70;93.40;;;;;;5035239;28;20003;-88
2021/01/15 06:31:29;;;;;;;;;;;2.70;93.40;;;;;;5031466;28;19939;-86
2021/01/15 06:34:01;;;;;;;;;;;2.70;93.40;;;;;;5019141;28;19913;-86
2021/01/15 06:36:45;;;;;;;;;;;2.70;93.40;;;;;;5037269;28;19979;-88
2021/01/15 06:39:11;;;;;;;;;;;2.70;93.40;;;;;;5052979;28;20374;-86
2021/01/15 06:41:39;;;;;;;;;;;2.70;93.40;;;;;;5019045;28;20444;-85
2021/01/15 06:44:08;;;;;;;;;;;2.70;93.50;;;;;;5037917;28;19920;-85
2021/01/15 06:46:36;;;;;;;;;;;2.70;93.50;;;;;;5034590;28;19933;-90
2021/01/15 06:49:03;;;;;;;;;;;2.70;93.50;;;;;;5041643;28;19923;-85
2021/01/15 06:51:31;;;;;;;;;;;2.70;93.50;;;;;;5057513;28;19909;-86
2021/01/15 06:53:57;;;;;;;;;;;2.70;93.50;;;;;;5017606;28;20015;-87
2021/01/15 06:56:27;;;;;;;;;;;2.70;93.50;;;;;;5030555;28;20399;-85
2021/01/15 06:58:57;;;;;;;;;;;2.70;93.50;;;;;;5033533;28;19915;-85
2021/01/15 07:01:25;;;;;;;;;;;2.70;93.50;;;;;;5017279;28;19952;-87
2021/01/15 07:03:50;;;;;;;;;;;2.70;93.50;;;;;;5017579;28;19932;-88
2021/01/15 07:06:29;;;;;;;;;;;2.70;93.50;;;;;;5035679;28;20360;-87
2021/01/15 07:08:55;;;;;;;;;;;2.70;93.50;;;;;;5019597;28;19935;-81
2021/01/15 07:11:22;;;;;;;;;;;2.70;93.50;;;;;;5042937;28;19912;-87
2021/01/15 07:13:51;;;;;;;;;;;2.70;93.50;;;;;;5029780;28;19917;-89
2021/01/15 07:16:18;;;;;;;;;;;2.70;93.60;;;;;;5038699;28;19912;-86
2021/01/15 07:18:48;;;;;;;;;;;2.70;93.60;;;;;;5034940;28;20597;-86
2021/01/15 07:21:14;;;;;;;;;;;2.70;93.60;;;;;;5029558;28;19957;-88
2021/01/15 07:23:53;;;;;;;;;;;2.70;93.60;;;;;;5022527;28;19912;-87
2021/01/15 07:26:19;;;;;;;;;;;2.70;93.70;;;;;;5033323;28;20436;-85
2021/01/15 07:28:48;;;;;;;;;;;2.70;93.60;;;;;;5029806;28;19918;-86
2021/01/15 07:31:22;;;;;;;;;;;2.70;93.60;;;;;;5046049;28;19958;-86
2021/01/15 07:33:58;;;;;;;;;;;2.70;93.90;;;;;;5050640;28;19958;-87
2021/01/15 07:36:50;;;;;;;;;;;2.70;93.60;;;;;;5034877;28;20424;-87
2021/01/15 07:39:17;;;;;;;;;;;2.70;93.60;;;;;;5042914;28;19995;-86
2021/01/15 07:41:52;;;;;;;;;;;2.70;93.70;;;;;;5016113;28;19913;-86
2021/01/15 07:44:21;;;;;;;;;;;2.70;93.70;;;;;;5027132;28;19908;-86
2021/01/15 07:46:47;;;;;;;;;;;2.70;93.70;;;;;;5030462;28;19921;-86
2021/01/15 07:49:13;;;;;;;;;;;2.70;93.70;;;;;;5014411;28;19952;-86
2021/01/15 07:51:38;;;;;;;;;;;2.80;93.70;;;;;;5011278;28;19956;-86
2021/01/15 07:54:04;;;;;;;;;;;2.80;93.70;;;;;;5034353;28;19921;-86
2021/01/15 07:56:31;;;;;;;;;;;2.80;93.70;;;;;;5034272;28;20011;-86
2021/01/15 07:58:57;;;;;;;;;;;2.80;93.70;;;;;;5033718;28;20334;-86
2021/01/15 08:01:23;;;;;;;;;;;2.80;93.70;;;;;;5017673;28;19928;-87
2021/01/15 08:03:54;;;;;;;;;;;2.80;93.80;;;;;;5020232;28;19929;-86
2021/01/15 08:06:20;;;;;;;;;;;2.80;93.80;;;;;;5034126;28;20271;-86
2021/01/15 08:08:59;;;;;;;;;;;2.80;93.80;;;;;;5051869;28;20639;-86
2021/01/15 08:11:25;;;;;;;;;;;2.80;93.80;;;;;;5034193;28;19920;-87
2021/01/15 08:14:08;;;;;;;;;;;2.80;93.80;;;;;;5051944;28;19909;-87
2021/01/15 08:16:34;;;;;;;;;;;2.80;93.80;;;;;;5040588;28;19944;-86
2021/01/15 08:19:00;;;;;;;;;;;2.80;93.80;;;;;;5017523;28;20362;-86
2021/01/15 08:21:26;;;;;;;;;;;2.80;93.80;;;;;;5034075;28;19920;-86
2021/01/15 08:24:00;;;;;;;;;;;2.80;93.80;;;;;;5034136;28;19912;-87
2021/01/15 08:26:30;;;;;;;;;;;2.80;93.80;;;;;;5033707;28;19948;-86
2021/01/15 08:28:55;;;;;;;;;;;2.80;93.80;;;;;;5030685;28;19956;-86
2021/01/15 08:31:21;;;;;;;;;;;2.90;93.80;;;;;;5030434;28;20014;-86
2021/01/15 08:33:47;;;;;;;;;;;2.90;93.90;;;;;;5034093;28;20297;-87
2021/01/15 08:36:14;;;;;;;;;;;2.90;93.90;;;;;;5017236;28;20382;-86
2021/01/15 08:38:39;;;;;;;;;;;2.90;93.90;;;;;;5033856;28;19962;-87
2021/01/15 08:41:15;;;;;;;;;;;2.90;93.80;;;;;;5051507;28;19912;-86
2021/01/15 08:43:41;;;;;;;;;;;2.90;93.90;;;;;;5039074;28;19913;-86
2021/01/15 08:46:13;;;;;;;;;;;2.90;93.90;;;;;;5016952;28;19935;-86
2021/01/15 08:48:39;;;;;;;;;;;2.80;93.90;;;;;;5037868;28;20326;-86
2021/01/15 08:51:08;;;;;;;;;;;2.90;93.90;;;;;;5033770;28;19992;-88
2021/01/15 08:54:18;;;;;;;;;;;2.90;93.90;;;;;;5051478;28;19913;-86
2021/01/15 08:56:30;;;;;;;;;;;2.90;93.90;;;;;;5026812;28;19909;-87
2021/01/15 08:58:55;;;;;;;;;;;2.90;93.90;;;;;;5020201;28;19930;-90
2021/01/15 09:01:23;;;;;;;;;;;2.90;93.90;;;;;;5051499;28;20357;-87
2021/01/15 09:03:51;;;;;;;;;;;2.90;93.90;;;;;;5046110;28;19963;-86
2021/01/15 09:06:20;;;;;;;;;;;2.90;93.80;;;;;;5030933;28;19964;-86
2021/01/15 09:08:46;;;;;;;;;;;3.00;93.90;;;;;;5027042;28;19909;-86
2021/01/15 09:11:12;;;;;;;;;;;2.90;93.90;;;;;;5032759;28;20375;-86
2021/01/15 09:13:38;;;;;;;;;;;3.00;93.90;;;;;;5019466;28;20381;-86
2021/01/15 09:16:04;;;;;;;;;;;3.00;93.90;;;;;;5054083;28;19909;-88
2021/01/15 09:18:30;;;;;;;;;;;3.00;93.90;;;;;;5035751;28;19913;-86
2021/01/15 09:20:55;;;;;;;;;;;3.00;93.90;;;;;;5012742;28;19920;-87
2021/01/15 09:23:20;;;;;;;;;;;3.00;93.90;;;;;;5028389;28;19917;-86
2021/01/15 09:25:46;;;;;;;;;;;3.00;93.90;;;;;;5029870;28;19917;-87
2021/01/15 09:28:11;;;;;;;;;;;3.00;93.90;;;;;;5053435;28;19921;-86
2021/01/15 09:30:37;;;;;;;;;;;3.00;93.90;;;;;;5036100;28;19913;-86
2021/01/15 09:33:03;;;;;;;;;;;3.00;93.90;;;;;;5053101;28;20290;-86
2021/01/15 09:35:29;;;;;;;;;;;3.00;93.90;;;;;;5022313;28;19913;-86
2021/01/15 09:37:54;;;;;;;;;;;3.00;93.90;;;;;;5019284;28;19920;-86
2021/01/15 09:40:20;;;;;;;;;;;3.00;93.90;;;;;;5011009;28;19917;-86
2021/01/15 09:42:48;;;;;;;;;;;3.00;93.90;;;;;;5020840;28;19967;-86
2021/01/15 09:45:14;;;;;;;;;;;3.00;93.90;;;;;;5053423;28;19917;-86
2021/01/15 09:47:42;;;;;;;;;;;3.00;94.00;;;;;;5018847;28;20412;-86
2021/01/15 09:50:08;;;;;;;;;;;3.00;93.90;;;;;;5035347;28;19924;-86
2021/01/15 09:52:36;;;;;;;;;;;3.00;93.90;;;;;;5035279;28;19913;-85
2021/01/15 09:55:01;;;;;;;;;;;3.10;93.90;;;;;;5025482;28;19913;-87
2021/01/15 09:57:27;;;;;;;;;;;3.10;93.90;;;;;;5028605;28;19920;-87
2021/01/15 09:59:54;;;;;;;;;;;3.10;93.90;;;;;;5011866;28;19919;-87
2021/01/15 10:02:19;;;;;;;;;;;3.00;93.80;;;;;;4982781;28;1357488;-87
2021/01/15 10:04:45;;;;;;;;;;;3.10;93.90;;;;;;5029988;28;19998;-86
2021/01/15 10:07:11;;;;;;;;;;;3.10;93.90;;;;;;5032918;28;20364;-87
2021/01/15 10:09:37;;;;;;;;;;;3.10;93.90;;;;;;5016337;28;19961;-86
2021/01/15 10:12:03;;;;;;;;;;;3.10;93.90;;;;;;5033905;28;20019;-86
2021/01/15 10:14:28;;;;;;;;;;;3.10;93.90;;;;;;5015070;28;19935;-86
2021/01/15 10:16:54;;;;;;;;;;;3.10;93.90;;;;;;5051061;28;19913;-86
2021/01/15 10:19:20;;;;;;;;;;;3.10;93.90;;;;;;5019406;28;19967;-87
2021/01/15 10:21:45;;;;;;;;;;;3.10;93.90;;;;;;5019700;28;19956;-86
2021/01/15 10:24:12;;;;;;;;;;;3.10;93.90;;;;;;5021040;28;19948;-86
2021/01/15 10:26:38;;;;;;;;;;;3.10;93.90;;;;;;5011318;28;19960;-87
2021/01/15 10:29:08;;;;;;;;;;;3.10;93.90;;;;;;5052305;28;19909;-86
2021/01/15 10:31:54;;;;;;;;;;;3.10;93.90;;;;;;5043163;28;19956;-86
2021/01/15 10:34:23;;;;;;;;;;;3.10;93.90;;;;;;5021868;28;19917;-87
2021/01/15 10:36:49;;;;;;;;;;;3.10;94.00;;;;;;5035817;28;19908;-87
2021/01/15 10:39:15;;;;;;;;;;;3.10;94.00;;;;;;5035382;28;19909;-87
2021/01/15 10:41:42;;;;;;;;;;;3.10;94.00;;;;;;5053240;28;19921;-86
2021/01/15 10:44:08;;;;;;;;;;;3.20;94.00;;;;;;5042616;28;19935;-86
2021/01/15 10:46:36;;;;;;;;;;;3.20;94.00;;;;;;5023636;28;19936;-86
2021/01/15 10:49:02;;;;;;;;;;;3.20;94.00;;;;;;5008770;28;20362;-86
2021/01/15 10:51:28;;;;;;;;;;;3.10;93.90;;;;;;5047226;28;19912;-87
2021/01/15 10:53:53;;;;;;;;;;;3.20;94.00;;;;;;5035574;28;19998;-86
2021/01/15 10:56:19;;;;;;;;;;;3.20;94.00;;;;;;5024935;28;19963;-86
2021/01/15 10:58:45;;;;;;;;;;;3.20;94.00;;;;;;5024586;28;19913;-86
2021/01/15 11:01:10;;;;;;;;;;;3.20;94.00;;;;;;5052962;28;20027;-86
2021/01/15 11:03:36;;;;;;;;;;;3.20;93.90;;;;;;5023706;28;19983;-86
2021/01/15 11:06:01;;;;;;;;;;;3.20;93.90;;;;;;5030362;28;19925;-86
2021/01/15 11:08:27;;;;;;;;;;;3.20;93.90;;;;;;5035190;28;20459;-87
2021/01/15 11:10:52;;;;;;;;;;;3.20;93.90;;;;;;5015221;28;19913;-86
2021/01/15 11:13:18;;;;;;;;;;;3.20;93.90;;;;;;5030551;28;20393;-87
2021/01/15 11:15:43;;;;;;;;;;;3.20;93.80;;;;;;5018282;28;19916;-87
2021/01/15 11:18:09;;;;;;;;;;;3.20;93.80;;;;;;5018251;28;19912;-87
2021/01/15 11:20:34;;;;;;;;;;;3.20;93.80;;;;;;5035096;28;20286;-86
2021/01/15 11:23:00;;;;;;;;;;;3.20;93.80;;;;;;5019005;28;19913;-85
2021/01/15 11:25:25;;;;;;;;;;;3.20;93.80;;;;;;5026284;28;19917;-87
2021/01/15 11:27:51;;;;;;;;;;;3.20;93.80;;;;;;5002257;28;20382;-85
2021/01/15 11:30:17;;;;;;;;;;;3.30;93.80;;;;;;5013527;28;20315;-90
2021/01/15 11:32:42;;;;;;;;;;;3.20;93.60;;;;;;5005478;28;19913;-87
2021/01/15 11:35:08;;;;;;;;;;;3.30;93.60;;;;;;5055608;28;19924;-86
2021/01/15 11:37:35;;;;;;;;;;;3.30;93.60;;;;;;5032175;28;19913;-87
2021/01/15 11:40:10;;;;;;;;;;;3.30;93.60;;;;;;5021058;28;19912;-85
2021/01/15 11:42:36;;;;;;;;;;;3.30;93.60;;;;;;5013239;28;20338;-87
2021/01/15 11:45:02;;;;;;;;;;;3.30;93.50;;;;;;5038418;28;20029;-86
2021/01/15 11:47:27;;;;;;;;;;;3.30;93.50;;;;;;5030747;28;19925;-88
2021/01/15 11:49:53;;;;;;;;;;;3.30;93.40;;;;;;4995679;28;20039;-86
2021/01/15 11:52:18;;;;;;;;;;;3.30;93.30;;;;;;5034453;28;19920;-85
2021/01/15 11:54:44;;;;;;;;;;;3.30;93.30;;;;;;5015690;28;19913;-85
2021/01/15 11:57:10;;;;;;;;;;;3.20;93.40;;;;;;5040092;28;19967;-86
2021/01/15 11:59:35;;;;;;;;;;;3.30;93.40;;;;;;5014363;28;20383;-86
2021/01/15 12:02:01;;;;;;;;;;;3.30;93.40;;;;;;5031570;28;20290;-85
2021/01/15 12:04:26;;;;;;;;;;;3.30;93.20;;;;;;5047715;28;19929;-86
2021/01/15 12:06:55;;;;;;;;;;;3.30;93.20;;;;;;5014810;28;20338;-86
2021/01/15 12:09:21;;;;;;;;;;;3.30;93.20;;;;;;5033905;28;19917;-86
2021/01/15 12:11:46;;;;;;;;;;;3.30;93.20;;;;;;5029541;28;19913;-86
2021/01/15 12:14:12;;;;;;;;;;;3.20;93.10;;;;;;5012419;28;19913;-89
2021/01/15 12:16:38;;;;;;;;;;;3.30;93.20;;;;;;5024537;28;19913;-86
2021/01/15 12:19:04;;;;;;;;;;;3.30;93.20;;;;;;5033536;28;19916;-86
2021/01/15 12:21:30;;;;;;;;;;;3.30;93.10;;;;;;5051657;28;19962;-87
2021/01/15 12:23:56;;;;;;;;;;;3.30;93.10;;;;;;5033602;28;19953;-85
2021/01/15 12:26:22;;;;;;;;;;;3.30;93.00;;;;;;5037945;28;20028;-85
2021/01/15 12:28:48;;;;;;;;;;;3.30;92.90;;;;;;5023207;28;20016;-85
2021/01/15 12:31:15;;;;;;;;;;;3.30;92.90;;;;;;5033814;28;19909;-88
2021/01/15 12:33:41;;;;;;;;;;;3.30;93.00;;;;;;5030776;28;19913;-85
2021/01/15 12:36:09;;;;;;;;;;;3.30;93.00;;;;;;5028212;28;20015;-86
2021/01/15 12:38:35;;;;;;;;;;;3.30;92.90;;;;;;5022633;28;19955;-85
2021/01/15 12:41:00;;;;;;;;;;;3.30;93.00;;;;;;5032874;28;19913;-85
2021/01/15 12:43:26;;;;;;;;;;;3.30;93.00;;;;;;5020811;28;19971;-86
2021/01/15 12:45:51;;;;;;;;;;;3.30;93.10;;;;;;5032669;28;19948;-85
2021/01/15 12:48:17;;;;;;;;;;;3.30;93.10;;;;;;5037757;28;19917;-86
2021/01/15 12:50:43;;;;;;;;;;;3.30;93.10;;;;;;5037765;28;19916;-84
2021/01/15 12:53:09;;;;;;;;;;;3.30;93.10;;;;;;5031041;28;20378;-86
2021/01/15 12:55:34;;;;;;;;;;;3.30;93.10;;;;;;5034700;28;19913;-86
2021/01/15 12:58:01;;;;;;;;;;;3.30;93.10;;;;;;5047640;28;20004;-86
2021/01/15 13:00:27;;;;;;;;;;;3.30;93.10;;;;;;5018075;28;19955;-85
2021/01/15 13:02:52;;;;;;;;;;;3.30;93.20;;;;;;5033114;28;19990;-86
2021/01/15 13:05:18;;;;;;;;;;;3.30;93.20;;;;;;5047406;28;19940;-85
2021/01/15 13:07:44;;;;;;;;;;;3.40;93.20;;;;;;5042027;28;19974;-85
2021/01/15 13:10:10;;;;;;;;;;;3.40;93.20;;;;;;5055408;28;20011;-85
2021/01/15 13:12:36;;;;;;;;;;;3.40;93.10;;;;;;5017119;28;19913;-86
2021/01/15 13:15:03;;;;;;;;;;;3.40;93.10;;;;;;5035373;28;19913;-86
2021/01/15 13:17:28;;;;;;;;;;;3.40;93.10;;;;;;5017581;28;19916;-85
2021/01/15 13:19:54;;;;;;;;;;;3.40;93.10;;;;;;5031198;28;19921;-86
2021/01/15 13:22:20;;;;;;;;;;;3.40;93.10;;;;;;5037194;28;20008;-86
2021/01/15 13:24:45;;;;;;;;;;;3.40;93.10;;;;;;5047909;28;19963;-86
2021/01/15 13:27:11;;;;;;;;;;;3.40;93.20;;;;;;5036445;28;19925;-86
2021/01/15 13:29:37;;;;;;;;;;;3.40;93.20;;;;;;5054925;28;19913;-86
2021/01/15 13:32:03;;;;;;;;;;;3.40;93.20;;;;;;5036940;28;19909;-86
2021/01/15 13:34:28;;;;;;;;;;;3.50;93.30;;;;;;5019715;28;19979;-87
2021/01/15 13:36:57;;;;;;;;;;;3.50;93.30;;;;;;5045826;28;20347;-86
2021/01/15 13:39:23;;;;;;;;;;;3.50;93.30;;;;;;5045493;28;19919;-86
2021/01/15 13:41:48;;;;;;;;;;;3.50;93.20;;;;;;5024594;28;20007;-85
2021/01/15 13:44:14;;;;;;;;;;;3.50;93.30;;;;;;5055051;28;19955;-86
2021/01/15 13:46:39;;;;;;;;;;;3.50;93.30;;;;;;5022662;28;19925;-86
2021/01/15 13:49:05;;;;;;;;;;;3.50;93.40;;;;;;5016932;28;19913;-86
2021/01/15 13:51:30;;;;;;;;;;;3.50;93.30;;;;;;5036431;28;19913;-87
2021/01/15 13:53:56;;;;;;;;;;;3.50;93.40;;;;;;5016925;28;19995;-87
2021/01/15 13:56:22;;;;;;;;;;;3.60;93.40;;;;;;5030879;28;20015;-87
2021/01/15 13:58:47;;;;;;;;;;;3.50;93.40;;;;;;5054689;28;19924;-87
2021/01/15 14:01:13;;;;;;;;;;;3.50;93.40;;;;;;5024424;28;19913;-88
2021/01/15 14:03:38;;;;;;;;;;;3.60;93.40;;;;;;5008655;28;19948;-88
2021/01/15 14:06:04;;;;;;;;;;;3.60;93.40;;;;;;4999294;28;19913;-88
2021/01/15 14:08:30;;;;;;;;;;;3.60;93.40;;;;;;5015853;28;19916;-87
2021/01/15 14:10:56;;;;;;;;;;;3.60;93.40;;;;;;5000063;28;19917;-87
2021/01/15 14:13:22;;;;;;;;;;;3.60;93.40;;;;;;5016686;28;19979;-87
2021/01/15 14:15:47;;;;;;;;;;;3.60;93.40;;;;;;5017077;28;19909;-87
2021/01/15 14:18:13;;;;;;;;;;;3.60;93.40;;;;;;5030458;28;20394;-87
2021/01/15 14:20:38;;;;;;;;;;;3.60;93.50;;;;;;5020747;28;20345;-86
2021/01/15 14:23:04;;;;;;;;;;;3.60;93.50;;;;;;5015732;28;19920;-87
2021/01/15 14:25:30;;;;;;;;;;;3.60;93.50;;;;;;5032602;28;19921;-87
2021/01/15 14:27:55;;;;;;;;;;;3.60;93.50;;;;;;5013173;28;19931;-86
2021/01/15 14:30:21;;;;;;;;;;;3.60;93.50;;;;;;5016678;28;20011;-86
2021/01/15 14:32:47;;;;;;;;;;;3.60;93.50;;;;;;5030217;28;19944;-87